createdAt,value
2022-12-06T00:01:59.283Z,75.25
2022-12-06T00:04:28.983Z,75.26
2022-12-06T00:06:59.611Z,75.34
2022-12-06T00:09:32.486Z,75.36
2022-12-06T00:12:02.192Z,75.38
2022-12-06T00:14:31.199Z,75.39
2022-12-06T00:17:00.610Z,75.47
2022-12-06T00:19:29.928Z,75.50
2022-12-06T00:21:59.366Z,75.48
2022-12-06T00:24:28.405Z,75.66
2022-12-06T00:26:57.329Z,75.70
2022-12-06T00:29:26.602Z,75.65
2022-12-06T00:31:55.829Z,75.59
2022-12-06T00:34:25.267Z,75.77
2022-12-06T00:36:54.265Z,75.67
2022-12-06T00:39:23.355Z,75.75
2022-12-06T00:41:52.954Z,75.81
2022-12-06T00:44:22.084Z,75.66
2022-12-06T00:46:51.330Z,75.65
2022-12-06T00:49:20.515Z,75.66
2022-12-06T00:51:49.494Z,75.53
2022-12-06T00:54:19.580Z,75.38
2022-12-06T00:56:48.783Z,75.39
2022-12-06T00:59:17.915Z,75.28
2022-12-06T01:01:47.282Z,75.25
2022-12-06T01:04:17.219Z,75.53
2022-12-06T01:06:46.294Z,75.75
2022-12-06T01:09:18.173Z,75.45
2022-12-06T01:11:47.178Z,75.41
2022-12-06T01:14:16.169Z,75.02
2022-12-06T01:16:45.271Z,75.07
2022-12-06T01:19:14.862Z,75.12
2022-12-06T01:21:44.084Z,75.12
2022-12-06T01:24:13.172Z,74.92
2022-12-06T01:26:42.152Z,75.12
2022-12-06T01:29:12.325Z,75.17
2022-12-06T01:31:41.177Z,74.94
2022-12-06T01:34:18.096Z,74.94
2022-12-06T01:36:47.318Z,74.74
2022-12-06T01:39:16.593Z,74.83
2022-12-06T01:41:45.593Z,74.83
2022-12-06T01:44:42.249Z,74.68
2022-12-06T01:47:27.513Z,74.52
2022-12-06T01:50:05.904Z,74.56
2022-12-06T01:52:55.938Z,75.26
2022-12-06T01:55:32.138Z,75.49
2022-12-06T01:58:11.317Z,75.16
2022-12-06T02:00:41.007Z,74.07
2022-12-06T02:03:24.335Z,74.07
2022-12-06T02:05:56.983Z,74.13
2022-12-06T02:08:27.574Z,74.35
2022-12-06T02:10:57.263Z,74.49
2022-12-06T02:13:28.206Z,74.36
2022-12-06T02:16:25.994Z,73.93
2022-12-06T02:19:12.539Z,74.24
2022-12-06T02:22:21.095Z,74.83
2022-12-06T02:25:17.620Z,74.84
2022-12-06T02:28:36.312Z,74.72
2022-12-06T02:31:44.092Z,74.95
2022-12-06T02:34:44.083Z,74.92
2022-12-06T02:37:38.794Z,74.95
2022-12-06T02:40:35.478Z,75.70
2022-12-06T02:43:39.132Z,75.85
2022-12-06T02:46:09.368Z,75.58
2022-12-06T02:48:40.670Z,75.16
2022-12-06T02:51:16.449Z,75.14
2022-12-06T02:53:52.017Z,74.84
2022-12-06T02:56:22.248Z,75.13
2022-12-06T02:58:51.506Z,74.67
2022-12-06T03:01:34.751Z,74.29
2022-12-06T03:04:33.643Z,74.74
2022-12-06T03:07:38.063Z,74.89
2022-12-06T03:10:29.765Z,74.96
2022-12-06T03:13:48.066Z,74.47
2022-12-06T03:16:34.554Z,74.41
2022-12-06T03:19:22.136Z,74.37
2022-12-06T03:22:19.995Z,74.10
2022-12-06T03:24:49.309Z,73.69
2022-12-06T03:27:22.079Z,73.51
2022-12-06T03:29:59.297Z,73.92
2022-12-06T03:32:34.817Z,73.74
2022-12-06T03:35:11.256Z,73.45
2022-12-06T03:37:46.564Z,73.39
2022-12-06T03:40:32.052Z,73.49
2022-12-06T03:43:04.218Z,73.72
2022-12-06T03:45:54.724Z,73.65
2022-12-06T03:48:37.706Z,73.73
2022-12-06T03:51:12.513Z,73.97
2022-12-06T03:54:00.532Z,73.78
2022-12-06T03:56:37.922Z,74.10
2022-12-06T03:59:09.772Z,73.95
2022-12-06T04:01:40.618Z,73.94
2022-12-06T04:04:12.061Z,73.97
2022-12-06T04:06:41.159Z,74.50
2022-12-06T04:09:29.859Z,74.75
2022-12-06T04:11:58.826Z,74.85
2022-12-06T04:14:33.581Z,74.71
2022-12-06T04:17:34.498Z,74.78
2022-12-06T04:20:04.710Z,74.64
2022-12-06T04:22:52.243Z,74.72
2022-12-06T04:25:21.346Z,74.85
2022-12-06T04:28:08.688Z,74.83
2022-12-06T04:30:55.582Z,74.79
2022-12-06T04:33:42.953Z,74.84
2022-12-06T04:36:30.164Z,74.56
2022-12-06T04:39:01.478Z,74.55
2022-12-06T04:41:48.935Z,74.46
2022-12-06T04:44:18.611Z,74.56
2022-12-06T04:46:47.711Z,74.34
2022-12-06T04:49:17.026Z,74.57
2022-12-06T04:51:46.243Z,74.58
2022-12-06T04:54:16.198Z,74.60
2022-12-06T04:56:45.379Z,74.64
2022-12-06T04:59:14.415Z,74.86
2022-12-06T05:01:43.581Z,74.59
2022-12-06T05:04:12.605Z,74.59
2022-12-06T05:06:41.782Z,74.54
2022-12-06T05:09:10.725Z,74.86
2022-12-06T05:11:39.825Z,75.21
2022-12-06T05:14:09.027Z,74.78
2022-12-06T05:16:38.104Z,74.90
2022-12-06T05:19:10.482Z,74.87
2022-12-06T05:21:40.233Z,74.78
2022-12-06T05:24:09.952Z,74.37
2022-12-06T05:26:39.060Z,74.11
2022-12-06T05:29:07.978Z,74.16
2022-12-06T05:31:36.983Z,74.03
2022-12-06T05:34:05.933Z,74.10
2022-12-06T05:36:35.071Z,74.24
2022-12-06T05:39:04.511Z,73.99
2022-12-06T05:41:33.751Z,73.82
2022-12-06T05:44:02.689Z,73.01
2022-12-06T05:46:31.632Z,72.71
2022-12-06T05:49:00.478Z,72.37
2022-12-06T05:51:29.491Z,72.13
2022-12-06T05:53:58.729Z,72.11
2022-12-06T05:56:28.178Z,72.19
2022-12-06T05:58:57.364Z,71.82
2022-12-06T06:01:26.476Z,71.96
2022-12-06T06:03:55.672Z,72.02
2022-12-06T06:06:24.929Z,72.50
2022-12-06T06:08:53.984Z,72.35
2022-12-06T06:11:24.021Z,72.70
2022-12-06T06:13:55.519Z,72.42
2022-12-06T06:16:24.537Z,72.18
2022-12-06T06:18:53.851Z,71.68
2022-12-06T06:21:23.672Z,72.16
2022-12-06T06:23:53.055Z,73.11
2022-12-06T06:26:24.857Z,72.98
2022-12-06T06:28:54.024Z,73.24
2022-12-06T06:31:23.766Z,73.30
2022-12-06T06:33:52.837Z,73.44
2022-12-06T06:36:21.886Z,74.51
2022-12-06T06:38:50.964Z,75.53
2022-12-06T06:41:20.088Z,75.32
2022-12-06T06:43:49.247Z,75.15
2022-12-06T06:46:18.509Z,74.21
2022-12-06T06:48:49.268Z,74.10
2022-12-06T06:51:18.591Z,74.06
2022-12-06T06:53:47.529Z,73.49
2022-12-06T06:56:17.075Z,73.30
2022-12-06T06:58:46.079Z,73.85
2022-12-06T07:01:24.819Z,73.75
2022-12-06T07:03:54.331Z,73.59
2022-12-06T07:06:23.882Z,73.26
2022-12-06T07:08:53.343Z,72.79
2022-12-06T07:11:24.923Z,73.02
2022-12-06T07:13:54.034Z,72.83
2022-12-06T07:16:23.147Z,72.90
2022-12-06T07:18:52.650Z,72.96
2022-12-06T07:21:24.588Z,72.84
2022-12-06T07:23:54.323Z,72.86
2022-12-06T07:26:25.835Z,72.64
2022-12-06T07:28:54.752Z,72.40
2022-12-06T07:31:28.059Z,72.59
2022-12-06T07:34:02.968Z,72.71
2022-12-06T07:36:33.657Z,72.36
2022-12-06T07:39:03.078Z,72.01
2022-12-06T07:41:50.707Z,72.07
2022-12-06T07:44:38.509Z,72.52
2022-12-06T07:47:07.750Z,73.64
2022-12-06T07:49:36.830Z,73.82
2022-12-06T07:52:05.907Z,73.83
2022-12-06T07:54:35.004Z,73.86
2022-12-06T07:57:04.619Z,74.46
2022-12-06T07:59:33.512Z,74.61
2022-12-06T08:02:02.549Z,73.91
2022-12-06T08:04:31.683Z,74.27
2022-12-06T08:07:01.853Z,74.00
2022-12-06T08:09:30.995Z,74.49
2022-12-06T08:12:02.566Z,73.97
2022-12-06T08:14:31.729Z,73.87
2022-12-06T08:17:00.691Z,73.82
2022-12-06T08:19:29.925Z,73.35
2022-12-06T08:21:59.067Z,72.94
2022-12-06T08:24:27.976Z,73.31
2022-12-06T08:26:57.270Z,73.61
2022-12-06T08:29:26.354Z,74.33
2022-12-06T08:31:55.513Z,74.29
2022-12-06T08:34:24.667Z,74.20
2022-12-06T08:36:56.036Z,73.84
2022-12-06T08:39:29.613Z,73.88
2022-12-06T08:42:04.070Z,74.11
2022-12-06T08:44:34.381Z,73.64
2022-12-06T08:47:04.608Z,73.47
2022-12-06T08:49:33.839Z,73.53
2022-12-06T08:52:03.338Z,73.21
2022-12-06T08:54:33.053Z,73.27
2022-12-06T08:57:02.123Z,73.11
2022-12-06T08:59:31.050Z,73.14
2022-12-06T09:02:00.499Z,73.25
2022-12-06T09:04:30.134Z,73.12
2022-12-06T09:06:59.266Z,73.11
2022-12-06T09:09:28.614Z,72.82
2022-12-06T09:11:57.707Z,72.84
2022-12-06T09:14:26.825Z,72.55
2022-12-06T09:16:56.035Z,72.48
2022-12-06T09:19:24.922Z,72.78
2022-12-06T09:21:53.756Z,72.74
2022-12-06T09:24:23.226Z,72.87
2022-12-06T09:26:52.166Z,72.79
2022-12-06T09:29:24.135Z,72.85
2022-12-06T09:31:55.087Z,72.98
2022-12-06T09:34:24.135Z,72.75
2022-12-06T09:37:10.317Z,72.66
2022-12-06T09:39:48.959Z,72.50
2022-12-06T09:42:37.516Z,72.47
2022-12-06T09:45:49.458Z,72.54
2022-12-06T09:48:53.115Z,72.57
2022-12-06T09:51:41.951Z,72.31
2022-12-06T09:54:55.873Z,71.80
2022-12-06T09:57:55.666Z,71.66
2022-12-06T10:00:26.386Z,71.57
2022-12-06T10:03:01.201Z,71.64
2022-12-06T10:06:05.079Z,71.34
2022-12-06T10:08:56.343Z,71.38
2022-12-06T10:12:11.318Z,71.58
2022-12-06T10:14:57.986Z,71.63
2022-12-06T10:17:50.537Z,71.32
2022-12-06T10:21:07.198Z,71.60
2022-12-06T10:24:20.465Z,71.50
2022-12-06T10:27:01.708Z,71.77
2022-12-06T10:29:42.439Z,71.40
2022-12-06T10:33:06.449Z,71.37
2022-12-06T10:35:48.921Z,71.43
2022-12-06T10:39:04.374Z,71.51
2022-12-06T10:41:46.309Z,71.37
2022-12-06T10:44:54.966Z,71.41
2022-12-06T10:47:45.519Z,71.18
2022-12-06T10:50:31.169Z,71.10
2022-12-06T10:53:14.464Z,71.14
2022-12-06T10:56:01.606Z,71.32
2022-12-06T10:59:18.906Z,71.09
2022-12-06T11:01:50.295Z,70.56
2022-12-06T11:04:33.780Z,70.45
2022-12-06T11:07:19.850Z,70.15
2022-12-06T11:09:54.949Z,69.88
2022-12-06T11:12:40.686Z,69.84
2022-12-06T11:15:36.930Z,69.59
2022-12-06T11:18:16.844Z,70.18
2022-12-06T11:21:07.765Z,70.22
2022-12-06T11:24:17.005Z,69.71
2022-12-06T11:26:50.993Z,69.72
2022-12-06T11:29:20.783Z,69.82
2022-12-06T11:31:56.374Z,70.04
2022-12-06T11:34:38.227Z,69.58
2022-12-06T11:37:12.416Z,69.29
2022-12-06T11:39:41.859Z,69.49
2022-12-06T11:42:16.671Z,69.10
2022-12-06T11:44:55.191Z,68.95
2022-12-06T11:47:25.755Z,69.12
2022-12-06T11:50:02.800Z,69.60
2022-12-06T11:52:49.319Z,69.52
2022-12-06T11:55:36.290Z,69.27
2022-12-06T11:58:31.530Z,69.87
2022-12-06T12:01:11.908Z,70.55
2022-12-06T12:03:47.586Z,72.40
2022-12-06T12:06:25.261Z,73.31
2022-12-06T12:09:01.568Z,73.46
2022-12-06T12:11:35.907Z,72.94
2022-12-06T12:14:17.383Z,73.58
2022-12-06T12:16:52.042Z,73.17
2022-12-06T12:19:48.541Z,73.00
2022-12-06T12:23:27.893Z,73.19
2022-12-06T12:26:17.125Z,72.79
2022-12-06T12:29:05.797Z,72.26
2022-12-06T12:31:46.739Z,72.64
2022-12-06T12:34:41.581Z,72.94
2022-12-06T12:37:23.212Z,72.82
2022-12-06T12:39:56.671Z,72.14
2022-12-06T12:42:36.024Z,72.70
2022-12-06T12:45:07.515Z,72.96
2022-12-06T12:47:37.697Z,72.55
2022-12-06T12:50:21.519Z,72.31
2022-12-06T12:52:51.145Z,71.82
2022-12-06T12:55:26.267Z,71.50
2022-12-06T12:57:59.937Z,71.16
2022-12-06T13:00:44.695Z,71.22
2022-12-06T13:03:50.064Z,71.36
2022-12-06T13:06:46.374Z,71.09
2022-12-06T13:09:30.665Z,71.27
2022-12-06T13:12:12.188Z,71.10
2022-12-06T13:14:53.204Z,71.07
2022-12-06T13:17:28.478Z,70.83
2022-12-06T13:19:57.659Z,70.98
2022-12-06T13:22:34.210Z,71.16
2022-12-06T13:25:09.341Z,70.73
2022-12-06T13:27:48.324Z,71.22
2022-12-06T13:30:26.631Z,71.25
2022-12-06T13:33:25.848Z,71.62
2022-12-06T13:36:13.619Z,71.80
2022-12-06T13:38:45.057Z,71.48
2022-12-06T13:41:56.025Z,71.33
2022-12-06T13:44:52.371Z,71.73
2022-12-06T13:47:31.387Z,71.32
2022-12-06T13:50:20.621Z,71.50
2022-12-06T13:52:49.887Z,71.78
2022-12-06T13:55:29.642Z,71.84
2022-12-06T13:58:19.008Z,71.72
2022-12-06T14:00:52.498Z,71.48
2022-12-06T14:03:21.564Z,71.18
2022-12-06T14:06:15.943Z,70.91
2022-12-06T14:09:02.128Z,70.79
2022-12-06T14:11:39.547Z,70.44
2022-12-06T14:14:26.696Z,70.48
2022-12-06T14:17:07.099Z,70.37
2022-12-06T14:19:52.130Z,70.76
2022-12-06T14:22:29.165Z,70.54
2022-12-06T14:25:19.781Z,70.40
2022-12-06T14:27:52.951Z,70.18
2022-12-06T14:30:27.048Z,70.31
2022-12-06T14:32:59.518Z,70.76
2022-12-06T14:35:28.562Z,70.46
2022-12-06T14:38:03.046Z,70.28
2022-12-06T14:41:01.996Z,70.71
2022-12-06T14:43:35.024Z,70.66
2022-12-06T14:46:16.227Z,70.87
2022-12-06T14:52:01.042Z,70.66
2022-12-06T14:54:36.202Z,70.82
2022-12-06T14:57:06.255Z,70.84
2022-12-06T15:02:30.598Z,70.36
2022-12-06T15:05:01.237Z,70.67
2022-12-06T15:07:56.331Z,70.74
2022-12-06T15:10:33.871Z,70.94
2022-12-06T15:13:20.220Z,71.08
2022-12-06T15:15:50.181Z,70.97
2022-12-06T15:18:26.721Z,70.97
2022-12-06T15:20:56.622Z,70.55
2022-12-06T15:23:42.469Z,70.82
2022-12-06T15:26:14.625Z,71.09
2022-12-06T15:28:44.171Z,71.08
2022-12-06T15:31:20.982Z,71.13
2022-12-06T15:33:51.049Z,70.99
2022-12-06T15:36:27.990Z,70.95
2022-12-06T15:38:57.376Z,71.26
2022-12-06T15:41:29.761Z,70.96
2022-12-06T15:43:58.624Z,70.69
2022-12-06T15:46:30.745Z,70.47
2022-12-06T15:49:00.403Z,70.46
2022-12-06T15:51:30.703Z,70.25
2022-12-06T15:54:03.829Z,70.32
2022-12-06T15:56:33.002Z,70.29
2022-12-06T15:59:02.161Z,70.22
2022-12-06T16:01:44.736Z,70.29
2022-12-06T16:04:22.301Z,70.29
2022-12-06T16:06:51.853Z,70.26
2022-12-06T16:09:21.574Z,70.41
2022-12-06T16:11:50.445Z,70.15
2022-12-06T16:14:19.375Z,69.84
2022-12-06T16:16:48.288Z,70.17
2022-12-06T16:19:17.602Z,70.10
2022-12-06T16:21:59.595Z,70.27
2022-12-06T16:24:28.448Z,69.81
2022-12-06T16:26:57.309Z,69.89
2022-12-06T16:29:26.235Z,69.88
2022-12-06T16:31:55.631Z,69.80
2022-12-06T16:34:24.710Z,69.88
2022-12-06T16:37:01.060Z,69.67
2022-12-06T16:39:34.491Z,69.72
2022-12-06T16:42:05.120Z,69.67
2022-12-06T16:44:34.161Z,69.71
2022-12-06T16:47:03.148Z,69.93
2022-12-06T16:49:49.384Z,69.81
2022-12-06T16:52:19.082Z,69.62
2022-12-06T16:54:48.185Z,69.47
2022-12-06T16:57:17.338Z,69.75
2022-12-06T16:59:47.195Z,70.22
2022-12-06T17:02:35.470Z,69.89
2022-12-06T17:05:07.462Z,69.93
2022-12-06T17:07:37.807Z,69.82
2022-12-06T17:10:07.733Z,69.61
2022-12-06T17:12:36.746Z,69.56
2022-12-06T17:15:06.580Z,69.30
2022-12-06T17:17:35.531Z,69.34
2022-12-06T17:20:04.497Z,69.51
2022-12-06T17:22:33.528Z,70.15
2022-12-06T17:25:03.001Z,70.11
2022-12-06T17:27:32.214Z,70.16
2022-12-06T17:30:01.422Z,70.36
2022-12-06T17:32:31.059Z,69.98
2022-12-06T17:35:00.181Z,70.25
2022-12-06T17:37:29.354Z,70.13
2022-12-06T17:40:00.708Z,69.84
2022-12-06T17:42:47.913Z,70.04
2022-12-06T17:45:19.587Z,70.38
2022-12-06T17:47:52.215Z,70.19
2022-12-06T17:50:20.984Z,70.37
2022-12-06T17:52:49.748Z,70.41
2022-12-06T17:58:20.154Z,70.41
2022-12-06T18:00:49.578Z,70.48
2022-12-06T18:03:18.677Z,70.13
2022-12-06T18:05:49.388Z,69.34
2022-12-06T18:08:18.681Z,69.32
2022-12-06T18:10:47.725Z,69.19
2022-12-06T18:13:17.288Z,69.52
2022-12-06T18:15:46.373Z,69.66
2022-12-06T18:18:15.406Z,69.78
2022-12-06T18:20:44.998Z,69.41
2022-12-06T18:23:14.849Z,69.33
2022-12-06T18:25:44.922Z,69.80
2022-12-06T18:28:14.089Z,69.65
2022-12-06T18:30:43.305Z,69.44
2022-12-06T18:33:17.566Z,69.57
2022-12-06T18:35:48.465Z,69.34
2022-12-06T18:38:17.567Z,68.91
2022-12-06T18:40:47.115Z,69.18
2022-12-06T18:43:16.243Z,69.28
2022-12-06T18:45:45.849Z,69.26
2022-12-06T18:48:15.216Z,69.27
2022-12-06T18:50:44.466Z,69.27
2022-12-06T18:53:14.276Z,69.19
2022-12-06T18:55:44.417Z,68.93
2022-12-06T18:58:13.396Z,68.50
2022-12-06T19:00:44.580Z,68.74
2022-12-06T19:03:14.976Z,68.92
2022-12-06T19:06:02.429Z,69.35
2022-12-06T19:08:31.835Z,69.20
2022-12-06T19:11:03.495Z,69.07
2022-12-06T19:13:32.469Z,68.70
2022-12-06T19:16:06.287Z,68.66
2022-12-06T19:18:35.558Z,68.70
2022-12-06T19:21:04.812Z,68.65
2022-12-06T19:23:34.387Z,68.61
2022-12-06T19:26:05.227Z,68.70
2022-12-06T19:28:35.429Z,68.73
2022-12-06T19:31:08.687Z,68.96
2022-12-06T19:33:42.102Z,69.30
2022-12-06T19:36:25.290Z,69.46
2022-12-06T19:39:04.175Z,69.07
2022-12-06T19:41:33.988Z,69.02
2022-12-06T19:44:18.772Z,68.67
2022-12-06T19:46:49.337Z,69.11
2022-12-06T19:49:22.491Z,69.47
2022-12-06T19:51:52.758Z,69.18
2022-12-06T19:54:33.703Z,69.52
2022-12-06T19:57:03.736Z,69.71
2022-12-06T19:59:40.210Z,69.27
2022-12-06T20:02:11.420Z,69.20
2022-12-06T20:04:43.480Z,69.34
2022-12-06T20:07:13.401Z,69.01
2022-12-06T20:09:42.608Z,68.73
2022-12-06T20:12:14.479Z,68.55
2022-12-06T20:14:49.398Z,69.26
2022-12-06T20:17:25.132Z,69.09
2022-12-06T20:19:54.118Z,69.12
2022-12-06T20:22:25.932Z,69.21
2022-12-06T20:24:55.015Z,68.88
2022-12-06T20:27:44.167Z,69.17
2022-12-06T20:30:14.283Z,69.67
2022-12-06T20:32:43.922Z,69.75
2022-12-06T20:35:12.844Z,69.23
2022-12-06T20:37:42.722Z,69.46
2022-12-06T20:40:12.744Z,69.56
2022-12-06T20:42:41.716Z,69.43
2022-12-06T20:45:10.967Z,69.47
2022-12-06T20:47:40.118Z,69.09
2022-12-06T20:50:10.484Z,69.41
2022-12-06T20:52:39.443Z,69.59
2022-12-06T20:55:09.026Z,69.40
2022-12-06T20:57:38.948Z,69.73
2022-12-06T21:00:11.854Z,69.94
2022-12-06T21:02:41.466Z,69.78
2022-12-06T21:05:10.860Z,70.20
2022-12-06T21:07:39.957Z,70.23
2022-12-06T21:10:10.137Z,70.47
2022-12-06T21:12:39.146Z,70.57
2022-12-06T21:15:08.942Z,70.50
2022-12-06T21:17:38.371Z,70.13
2022-12-06T21:20:09.103Z,70.00
2022-12-06T21:22:38.356Z,69.86
2022-12-06T21:25:07.754Z,69.91
2022-12-06T21:27:36.850Z,70.18
2022-12-06T21:30:08.845Z,70.44
2022-12-06T21:32:38.111Z,70.60
2022-12-06T21:35:07.557Z,70.82
2022-12-06T21:37:36.972Z,70.64
2022-12-06T21:40:06.958Z,70.59
2022-12-06T21:42:36.004Z,70.50
2022-12-06T21:45:05.971Z,70.72
2022-12-06T21:47:35.340Z,70.96
2022-12-06T21:50:04.711Z,70.94
2022-12-06T21:52:33.831Z,71.11
2022-12-06T21:55:03.018Z,71.15
2022-12-06T21:57:35.773Z,71.35
2022-12-06T22:00:22.621Z,71.24
2022-12-06T22:03:04.737Z,71.11
2022-12-06T22:05:36.563Z,71.34
2022-12-06T22:08:17.718Z,71.09
2022-12-06T22:10:48.977Z,70.77
2022-12-06T22:13:25.283Z,70.65
2022-12-06T22:15:57.844Z,70.40
2022-12-06T22:18:38.771Z,70.38
2022-12-06T22:21:30.597Z,70.56
2022-12-06T22:24:12.263Z,70.18
2022-12-06T22:26:41.652Z,70.02
2022-12-06T22:29:11.771Z,70.09
2022-12-06T22:31:40.899Z,70.27
2022-12-06T22:34:12.573Z,70.12
2022-12-06T22:36:41.996Z,70.17
2022-12-06T22:39:13.009Z,70.11
2022-12-06T22:41:42.354Z,70.16
2022-12-06T22:44:13.832Z,70.53
2022-12-06T22:46:43.267Z,70.06
2022-12-06T22:49:17.861Z,69.38
2022-12-06T22:51:47.757Z,69.59
2022-12-06T22:54:17.409Z,70.31
2022-12-06T22:56:49.985Z,70.60
2022-12-06T22:59:19.933Z,70.56
2022-12-06T23:01:49.285Z,70.27
2022-12-06T23:04:18.860Z,70.18
2022-12-06T23:06:48.245Z,69.85
2022-12-06T23:09:18.387Z,70.14
2022-12-06T23:11:47.609Z,70.98
2022-12-06T23:14:17.023Z,71.15
2022-12-06T23:16:46.662Z,71.01
2022-12-06T23:19:16.205Z,70.80
2022-12-06T23:21:45.642Z,70.93
2022-12-06T23:24:16.587Z,71.09
2022-12-06T23:26:56.082Z,71.09
2022-12-06T23:29:27.158Z,71.15
2022-12-06T23:31:56.563Z,71.24
2022-12-06T23:34:27.634Z,71.20
2022-12-06T23:36:58.273Z,70.98
2022-12-06T23:39:28.008Z,71.25
2022-12-06T23:41:57.743Z,71.24
2022-12-06T23:44:27.286Z,70.99
2022-12-06T23:46:56.720Z,71.26
2022-12-06T23:49:26.136Z,71.31
2022-12-06T23:51:55.523Z,71.25
2022-12-06T23:54:25.004Z,70.95
2022-12-06T23:56:55.538Z,71.17
2022-12-06T23:59:24.741Z,71.06
